createdAt,value
2017-10-27T00:00:18.414Z,101345
2017-10-27T00:02:44.573Z,101345
2017-10-27T00:05:11.508Z,101345
2017-10-27T00:07:38.444Z,101341
2017-10-27T00:10:05.720Z,101336
2017-10-27T00:12:31.893Z,101337
2017-10-27T00:14:58.067Z,101339
2017-10-27T00:17:24.612Z,101327
2017-10-27T00:19:50.786Z,101329
2017-10-27T00:22:16.930Z,101333
2017-10-27T00:24:43.133Z,101332
2017-10-27T00:27:09.292Z,101333
2017-10-27T00:29:36.205Z,101329
2017-10-27T00:32:02.649Z,101322
2017-10-27T00:34:28.811Z,101325
2017-10-27T00:36:55.711Z,101321
2017-10-27T00:39:21.922Z,101326
2017-10-27T00:41:48.340Z,101324
2017-10-27T00:44:14.530Z,101323
2017-10-27T00:46:41.465Z,101323
2017-10-27T00:49:07.641Z,101326
2017-10-27T00:51:34.162Z,101324
2017-10-27T00:54:00.351Z,101319
2017-10-27T00:56:26.551Z,101322
2017-10-27T00:58:53.079Z,101323
2017-10-27T01:01:19.264Z,101323
2017-10-27T01:03:46.147Z,101316
2017-10-27T01:06:12.376Z,101312
2017-10-27T01:08:38.573Z,101307
2017-10-27T01:11:04.761Z,101308
2017-10-27T01:13:30.965Z,101311
2017-10-27T01:15:57.175Z,101306
2017-10-27T01:18:23.348Z,101307
2017-10-27T01:20:49.581Z,101305
2017-10-27T01:23:16.530Z,101305
2017-10-27T01:25:43.492Z,101300
2017-10-27T01:28:09.709Z,101294
2017-10-27T01:30:36.649Z,101298
2017-10-27T01:33:03.633Z,101296
2017-10-27T01:35:29.832Z,101287
2017-10-27T01:37:56.777Z,101295
2017-10-27T01:40:23.022Z,101285
2017-10-27T01:42:49.260Z,101275
2017-10-27T01:45:15.460Z,101272
2017-10-27T01:47:42.434Z,101276
2017-10-27T01:50:08.651Z,101266
2017-10-27T01:52:34.846Z,101262
2017-10-27T01:55:01.812Z,101259
2017-10-27T01:57:28.018Z,101256
2017-10-27T01:59:54.958Z,101258
2017-10-27T02:02:21.929Z,101257
2017-10-27T02:04:48.137Z,101264
2017-10-27T02:07:15.089Z,101257
2017-10-27T02:09:42.031Z,101251
2017-10-27T02:12:08.992Z,101256
2017-10-27T02:14:35.205Z,101251
2017-10-27T02:17:02.137Z,101251
2017-10-27T02:19:28.341Z,101247
2017-10-27T02:21:54.554Z,101245
2017-10-27T02:24:20.756Z,101244
2017-10-27T02:26:46.969Z,101243
2017-10-27T02:29:13.407Z,101239
2017-10-27T02:31:39.672Z,101237
2017-10-27T02:34:05.877Z,101242
2017-10-27T02:36:32.101Z,101242
2017-10-27T02:38:58.305Z,101241
2017-10-27T02:41:25.353Z,101251
2017-10-27T02:43:51.612Z,101238
2017-10-27T02:46:17.796Z,101232
2017-10-27T02:48:44.732Z,101229
2017-10-27T02:51:10.937Z,101233
2017-10-27T02:53:37.117Z,101237
2017-10-27T02:56:03.306Z,101236
2017-10-27T02:58:29.535Z,101238
2017-10-27T03:00:55.714Z,101239
2017-10-27T03:03:21.903Z,101235
2017-10-27T03:05:48.093Z,101236
2017-10-27T03:08:14.281Z,101228
2017-10-27T03:10:40.486Z,101232
2017-10-27T03:13:06.697Z,101241
2017-10-27T03:15:32.885Z,101243
2017-10-27T03:17:59.064Z,101241
2017-10-27T03:20:25.545Z,101243
2017-10-27T03:22:51.751Z,101239
2017-10-27T03:25:17.952Z,101238
2017-10-27T03:27:44.156Z,101238
2017-10-27T03:30:10.340Z,101239
2017-10-27T03:32:36.525Z,101241
2017-10-27T03:35:03.007Z,101240
2017-10-27T03:37:29.201Z,101231
2017-10-27T03:39:56.112Z,101242
2017-10-27T03:42:22.388Z,101249
2017-10-27T03:44:48.597Z,101255
2017-10-27T03:47:15.528Z,101249
2017-10-27T03:49:41.746Z,101249
2017-10-27T03:52:07.957Z,101249
2017-10-27T03:54:34.155Z,101248
2017-10-27T03:57:00.371Z,101248
2017-10-27T03:59:27.330Z,101252
2017-10-27T04:01:53.508Z,101251
2017-10-27T04:04:19.737Z,101260
2017-10-27T04:06:45.937Z,101258
2017-10-27T04:09:12.137Z,101263
2017-10-27T04:11:38.364Z,101260
2017-10-27T04:14:04.557Z,101259
2017-10-27T04:16:30.752Z,101263
2017-10-27T04:18:56.960Z,101256
2017-10-27T04:21:23.149Z,101258
2017-10-27T04:23:50.092Z,101262
2017-10-27T04:26:17.889Z,101268
2017-10-27T04:28:44.082Z,101265
2017-10-27T04:31:11.050Z,101268
2017-10-27T04:33:37.601Z,101270
2017-10-27T04:36:03.787Z,101274
2017-10-27T04:38:30.700Z,101277
2017-10-27T04:40:56.969Z,101274
2017-10-27T04:43:23.900Z,101272
2017-10-27T04:45:50.108Z,101273
2017-10-27T04:48:16.294Z,101276
2017-10-27T04:50:42.470Z,101277
2017-10-27T04:53:08.700Z,101274
2017-10-27T04:55:34.863Z,101281
2017-10-27T04:58:01.037Z,101276
2017-10-27T05:00:27.539Z,101269
2017-10-27T05:02:53.714Z,101271
2017-10-27T05:05:19.889Z,101272
2017-10-27T05:07:46.066Z,101281
2017-10-27T05:10:12.256Z,101276
2017-10-27T05:12:38.456Z,101280
2017-10-27T05:15:04.660Z,101281
2017-10-27T05:17:37.071Z,101286
2017-10-27T05:20:10.201Z,101292
2017-10-27T05:22:42.461Z,101286
2017-10-27T05:25:08.621Z,101290
2017-10-27T05:27:35.568Z,101282
2017-10-27T05:30:02.513Z,101279
2017-10-27T05:32:29.429Z,101282
2017-10-27T05:34:55.597Z,101282
2017-10-27T05:37:21.788Z,101280
2017-10-27T05:39:48.280Z,101277
2017-10-27T05:42:14.510Z,101284
2017-10-27T05:44:40.720Z,101290
2017-10-27T05:47:06.930Z,101292
2017-10-27T05:49:33.869Z,101297
2017-10-27T05:52:00.821Z,101296
2017-10-27T05:54:27.780Z,101295
2017-10-27T05:56:54.382Z,101302
2017-10-27T05:59:21.336Z,101306
2017-10-27T06:01:47.616Z,101301
2017-10-27T06:04:13.795Z,101306
2017-10-27T06:06:39.972Z,101306
2017-10-27T06:09:06.251Z,101312
2017-10-27T06:11:32.435Z,101314
2017-10-27T06:13:58.713Z,101321
2017-10-27T06:16:25.640Z,101327
2017-10-27T06:18:51.801Z,101326
2017-10-27T06:21:17.980Z,101328
2017-10-27T06:23:44.443Z,101333
2017-10-27T06:26:11.357Z,101332
2017-10-27T06:28:37.545Z,101337
2017-10-27T06:31:03.773Z,101336
2017-10-27T06:33:29.935Z,101344
2017-10-27T06:35:56.147Z,101340
2017-10-27T06:38:22.321Z,101341
2017-10-27T06:40:49.260Z,101346
2017-10-27T06:43:15.454Z,101345
2017-10-27T06:45:41.640Z,101358
2017-10-27T06:48:07.824Z,101358
2017-10-27T06:50:34.051Z,101366
2017-10-27T06:53:00.238Z,101374
2017-10-27T06:55:26.439Z,101378
2017-10-27T06:57:53.411Z,101385
2017-10-27T07:00:19.606Z,101388
2017-10-27T07:02:46.546Z,101394
2017-10-27T07:05:13.505Z,101392
2017-10-27T07:07:40.460Z,101391
2017-10-27T07:10:06.637Z,101395
2017-10-27T07:12:33.020Z,101394
2017-10-27T07:14:59.251Z,101389
2017-10-27T07:17:25.424Z,101404
2017-10-27T07:19:51.640Z,101397
2017-10-27T07:22:17.848Z,101416
2017-10-27T07:24:44.076Z,101406
2017-10-27T07:27:10.359Z,101414
2017-10-27T07:29:37.298Z,101410
2017-10-27T07:32:03.497Z,101408
2017-10-27T07:34:29.728Z,101417
2017-10-27T07:36:55.932Z,101409
2017-10-27T07:39:22.121Z,101415
2017-10-27T07:41:49.111Z,101419
2017-10-27T07:44:15.313Z,101417
2017-10-27T07:46:41.519Z,101415
2017-10-27T07:49:08.804Z,101421
2017-10-27T07:51:35.009Z,101428
2017-10-27T07:54:01.266Z,101424
2017-10-27T07:56:27.503Z,101427
2017-10-27T07:58:53.713Z,101427
2017-10-27T08:01:19.910Z,101428
2017-10-27T08:03:47.200Z,101432
2017-10-27T08:06:13.408Z,101439
2017-10-27T08:08:39.601Z,101448
2017-10-27T08:11:06.185Z,101452
2017-10-27T08:13:32.384Z,101454
2017-10-27T08:15:59.328Z,101462
2017-10-27T08:18:26.284Z,101462
2017-10-27T08:20:53.253Z,101465
2017-10-27T08:23:19.448Z,101469
2017-10-27T08:25:46.728Z,101472
2017-10-27T08:28:12.918Z,101478
2017-10-27T08:30:39.859Z,101485
2017-10-27T08:33:06.298Z,101488
2017-10-27T08:35:33.293Z,101484
2017-10-27T08:37:59.496Z,101492
2017-10-27T08:40:26.039Z,101492
2017-10-27T08:42:52.242Z,101498
2017-10-27T08:45:19.216Z,101496
2017-10-27T08:47:45.653Z,101507
2017-10-27T08:50:11.859Z,101513
2017-10-27T08:52:38.334Z,101516
2017-10-27T08:55:04.565Z,101512
2017-10-27T08:57:30.776Z,101514
2017-10-27T08:59:57.011Z,101517
2017-10-27T09:02:23.232Z,101510
2017-10-27T09:04:49.450Z,101509
2017-10-27T09:07:15.886Z,101524
2017-10-27T09:09:42.073Z,101535
2017-10-27T09:12:09.037Z,101535
2017-10-27T09:14:36.093Z,101535
2017-10-27T09:17:02.308Z,101543
2017-10-27T09:19:28.518Z,101547
2017-10-27T09:21:55.507Z,101553
2017-10-27T09:24:21.720Z,101554
2017-10-27T09:26:47.937Z,101557
2017-10-27T09:29:14.165Z,101563
2017-10-27T09:31:40.359Z,101560
2017-10-27T09:34:06.605Z,101570
2017-10-27T09:36:33.571Z,101568
2017-10-27T09:38:59.771Z,101569
2017-10-27T09:41:26.714Z,101580
2017-10-27T09:43:53.034Z,101584
2017-10-27T09:46:19.260Z,101583
2017-10-27T09:48:45.450Z,101592
2017-10-27T09:51:11.675Z,101607
2017-10-27T09:53:38.215Z,101598
2017-10-27T09:56:04.448Z,101608
2017-10-27T09:58:31.540Z,101611
2017-10-27T10:00:57.749Z,101621
2017-10-27T10:03:24.057Z,101634
2017-10-27T10:05:50.262Z,101637
2017-10-27T10:08:16.539Z,101643
2017-10-27T10:10:42.745Z,101653
2017-10-27T10:13:08.977Z,101662
2017-10-27T10:15:35.211Z,101661
2017-10-27T10:18:01.471Z,101669
2017-10-27T10:20:28.450Z,101671
2017-10-27T10:22:54.655Z,101679
2017-10-27T10:25:21.636Z,101686
2017-10-27T10:27:47.850Z,101690
2017-10-27T10:30:14.040Z,101698
2017-10-27T10:32:40.536Z,101700
2017-10-27T10:35:06.943Z,101706
2017-10-27T10:37:34.212Z,101716
2017-10-27T10:40:00.809Z,101720
2017-10-27T10:42:27.556Z,101725
2017-10-27T10:44:54.620Z,101723
2017-10-27T10:47:22.015Z,101725
2017-10-27T10:49:49.685Z,101721
2017-10-27T10:52:15.972Z,101734
2017-10-27T10:54:43.102Z,101727
2017-10-27T10:57:09.354Z,101741
2017-10-27T10:59:35.536Z,101734
2017-10-27T11:02:01.730Z,101731
2017-10-27T11:04:27.928Z,101741
2017-10-27T11:06:54.125Z,101740
2017-10-27T11:09:21.080Z,101739
2017-10-27T11:11:48.010Z,101747
2017-10-27T11:14:14.960Z,101738
2017-10-27T11:16:41.895Z,101758
2017-10-27T11:19:08.068Z,101753
2017-10-27T11:21:34.292Z,101748
2017-10-27T11:24:00.477Z,101744
2017-10-27T11:26:27.486Z,101747
2017-10-27T11:28:53.716Z,101759
2017-10-27T11:31:19.912Z,101746
2017-10-27T11:33:46.417Z,101758
2017-10-27T11:36:13.376Z,101761
2017-10-27T11:38:40.320Z,101767
2017-10-27T11:41:07.279Z,101766
2017-10-27T11:43:33.497Z,101770
2017-10-27T11:46:00.493Z,101774
2017-10-27T11:48:26.984Z,101780
2017-10-27T11:50:53.188Z,101786
2017-10-27T11:53:20.174Z,101789
2017-10-27T11:55:46.504Z,101793
2017-10-27T11:58:12.865Z,101799
2017-10-27T12:00:39.148Z,101809
2017-10-27T12:03:05.388Z,101806
2017-10-27T12:05:31.621Z,101820
2017-10-27T12:07:57.828Z,101820
2017-10-27T12:10:24.368Z,101824
2017-10-27T12:12:50.612Z,101829
2017-10-27T12:15:16.986Z,101823
2017-10-27T12:17:44.160Z,101828
2017-10-27T12:20:11.095Z,101836
2017-10-27T12:22:38.025Z,101827
2017-10-27T12:25:04.250Z,101828
2017-10-27T12:27:31.213Z,101833
2017-10-27T12:29:58.215Z,101830
2017-10-27T12:32:24.404Z,101836
2017-10-27T12:34:51.323Z,101840
2017-10-27T12:37:17.631Z,101837
2017-10-27T12:39:43.854Z,101841
2017-10-27T12:42:10.069Z,101829
2017-10-27T12:44:36.247Z,101821
2017-10-27T12:47:03.245Z,101824
2017-10-27T12:49:29.562Z,101833
2017-10-27T12:51:55.781Z,101838
2017-10-27T12:54:21.991Z,101841
2017-10-27T12:56:48.447Z,101846
2017-10-27T12:59:14.624Z,101845
2017-10-27T13:01:40.837Z,101848
2017-10-27T13:04:07.073Z,101854
2017-10-27T13:06:33.288Z,101854
2017-10-27T13:08:59.478Z,101862
2017-10-27T13:11:25.665Z,101858
2017-10-27T13:13:52.661Z,101861
2017-10-27T13:16:18.876Z,101872
2017-10-27T13:18:45.117Z,101875
2017-10-27T13:21:11.308Z,101870
2017-10-27T13:23:38.236Z,101872
2017-10-27T13:26:04.449Z,101881
2017-10-27T13:28:30.655Z,101877
2017-10-27T13:30:56.929Z,101876
2017-10-27T13:33:23.890Z,101885
2017-10-27T13:35:50.846Z,101885
2017-10-27T13:38:17.081Z,101897
2017-10-27T13:40:43.418Z,101889
2017-10-27T13:43:09.621Z,101884
2017-10-27T13:45:36.565Z,101885
2017-10-27T13:48:03.516Z,101887
2017-10-27T13:50:29.750Z,101886
2017-10-27T13:52:55.951Z,101895
2017-10-27T13:55:22.907Z,101896
2017-10-27T13:57:50.199Z,101906
2017-10-27T14:00:16.457Z,101897
2017-10-27T14:02:43.045Z,101907
2017-10-27T14:05:09.236Z,101900
2017-10-27T14:07:36.481Z,101901
2017-10-27T14:10:02.785Z,101897
2017-10-27T14:12:29.048Z,101898
2017-10-27T14:14:55.981Z,101895
2017-10-27T14:17:22.213Z,101906
2017-10-27T14:19:48.405Z,101909
2017-10-27T14:22:14.587Z,101921
2017-10-27T14:24:41.851Z,101921
2017-10-27T14:27:08.146Z,101924
2017-10-27T14:29:34.325Z,101939
2017-10-27T14:32:00.528Z,101939
2017-10-27T14:34:27.463Z,101941
2017-10-27T14:36:54.419Z,101943
2017-10-27T14:39:21.336Z,101953
2017-10-27T14:41:47.533Z,101955
2017-10-27T14:44:13.739Z,101946
2017-10-27T14:46:39.901Z,101945
2017-10-27T14:49:06.169Z,101953
2017-10-27T14:51:33.246Z,101956
2017-10-27T14:53:59.444Z,101959
2017-10-27T14:56:26.368Z,101958
2017-10-27T14:58:52.588Z,101961
2017-10-27T15:01:19.113Z,101964
2017-10-27T15:03:45.315Z,101957
2017-10-27T15:06:11.533Z,101959
2017-10-27T15:08:37.712Z,101967
2017-10-27T15:11:03.914Z,101962
2017-10-27T15:13:30.132Z,101965
2017-10-27T15:15:56.348Z,101970
2017-10-27T15:18:22.572Z,101975
2017-10-27T15:20:48.818Z,101970
2017-10-27T15:23:15.029Z,101971
2017-10-27T15:25:41.217Z,101972
2017-10-27T15:28:08.224Z,101969
2017-10-27T15:30:34.417Z,101968
2017-10-27T15:33:00.608Z,101967
2017-10-27T15:35:27.594Z,101969
2017-10-27T15:37:53.808Z,101972
2017-10-27T15:40:20.208Z,101966
2017-10-27T15:42:46.409Z,101962
2017-10-27T15:45:12.887Z,101958
2017-10-27T15:47:39.445Z,101951
2017-10-27T15:50:05.614Z,101957
2017-10-27T15:52:31.798Z,101954
2017-10-27T15:54:58.010Z,101957
2017-10-27T15:57:24.193Z,101948
2017-10-27T15:59:50.390Z,101953
2017-10-27T16:02:16.582Z,101951
2017-10-27T16:04:43.521Z,101950
2017-10-27T16:07:10.447Z,101955
2017-10-27T16:09:36.657Z,101960
2017-10-27T16:12:03.792Z,101956
2017-10-27T16:14:29.982Z,101960
2017-10-27T16:16:56.914Z,101960
2017-10-27T16:19:23.857Z,101968
2017-10-27T16:21:50.789Z,101966
2017-10-27T16:24:17.001Z,101960
2017-10-27T16:26:43.483Z,101963
2017-10-27T16:29:09.751Z,101968
2017-10-27T16:31:35.940Z,101974
2017-10-27T16:34:03.141Z,101981
2017-10-27T16:36:29.337Z,101980
2017-10-27T16:38:55.653Z,101988
2017-10-27T16:41:22.091Z,101992
2017-10-27T16:43:48.919Z,101995
2017-10-27T16:46:15.112Z,101987
2017-10-27T16:48:41.338Z,102001
2017-10-27T16:51:07.525Z,102001
2017-10-27T16:53:33.757Z,102001
2017-10-27T16:56:00.195Z,102001
2017-10-27T16:58:26.392Z,102010
2017-10-27T17:00:53.408Z,102015
2017-10-27T17:03:19.647Z,102020
2017-10-27T17:05:46.595Z,102015
2017-10-27T17:08:13.877Z,102020
2017-10-27T17:10:40.065Z,102030
2017-10-27T17:13:06.240Z,102029
2017-10-27T17:15:32.460Z,102036
2017-10-27T17:17:58.650Z,102033
2017-10-27T17:20:25.587Z,102040
2017-10-27T17:22:51.814Z,102039
2017-10-27T17:25:18.010Z,102036
2017-10-27T17:27:44.596Z,102036
2017-10-27T17:30:10.839Z,102038
2017-10-27T17:32:37.056Z,102039
2017-10-27T17:35:03.984Z,102036
2017-10-27T17:37:30.931Z,102027
2017-10-27T17:39:57.859Z,102035
2017-10-27T17:42:24.061Z,102029
2017-10-27T17:44:50.377Z,102048
2017-10-27T17:47:16.558Z,102036
2017-10-27T17:49:42.731Z,102024
2017-10-27T17:52:08.940Z,102017
2017-10-27T17:54:35.140Z,102007
2017-10-27T17:57:02.600Z,102006
2017-10-27T17:59:28.801Z,102009
2017-10-27T18:01:54.985Z,102011
2017-10-27T18:04:21.196Z,102014
2017-10-27T18:06:48.119Z,102009
2017-10-27T18:09:14.308Z,102007
2017-10-27T18:11:41.694Z,102003
2017-10-27T18:14:07.997Z,102001
2017-10-27T18:16:34.196Z,102009
2017-10-27T18:19:00.384Z,102009
2017-10-27T18:21:26.864Z,102012
2017-10-27T18:23:53.077Z,102016
2017-10-27T18:26:19.276Z,102022
2017-10-27T18:28:46.268Z,102026
2017-10-27T18:31:12.488Z,102032
2017-10-27T18:33:38.673Z,102024
2017-10-27T18:36:04.863Z,102027
2017-10-27T18:38:31.390Z,102032
2017-10-27T18:40:57.588Z,102036
2017-10-27T18:43:24.469Z,102035
2017-10-27T18:45:50.646Z,102034
2017-10-27T18:48:16.888Z,102028
2017-10-27T18:50:43.101Z,102026
2017-10-27T18:53:10.048Z,102032
2017-10-27T18:55:36.978Z,102026
2017-10-27T18:58:03.158Z,102027
2017-10-27T19:00:29.327Z,102027
2017-10-27T19:02:55.528Z,102024
2017-10-27T19:05:21.692Z,102022
2017-10-27T19:07:48.607Z,102017
2017-10-27T19:10:15.066Z,102016
2017-10-27T19:12:41.984Z,102016
2017-10-27T19:15:08.185Z,102018
2017-10-27T19:17:34.532Z,102016
2017-10-27T19:20:00.697Z,102022
2017-10-27T19:22:27.608Z,102014
2017-10-27T19:24:53.789Z,102014
2017-10-27T19:27:19.993Z,102018
2017-10-27T19:29:47.280Z,102011
2017-10-27T19:32:13.455Z,102013
2017-10-27T19:34:39.932Z,102017
2017-10-27T19:37:06.401Z,102023
2017-10-27T19:39:32.569Z,102021
2017-10-27T19:41:59.490Z,102025
2017-10-27T19:44:26.193Z,102019
2017-10-27T19:46:52.369Z,102009
2017-10-27T19:49:18.544Z,102014
2017-10-27T19:51:44.971Z,102006
2017-10-27T19:54:11.135Z,101999
2017-10-27T19:56:37.323Z,101997
2017-10-27T19:59:03.613Z,101995
2017-10-27T20:01:29.808Z,101995
2017-10-27T20:03:56.013Z,101995
2017-10-27T20:06:22.202Z,102001
2017-10-27T20:08:49.157Z,101996
2017-10-27T20:11:16.065Z,101997
2017-10-27T20:13:42.666Z,102003
2017-10-27T20:16:08.836Z,101989
2017-10-27T20:18:35.011Z,101992
2017-10-27T20:21:01.242Z,101995
2017-10-27T20:23:27.425Z,101985
2017-10-27T20:25:53.587Z,101984
2017-10-27T20:28:19.765Z,101983
2017-10-27T20:30:45.938Z,101987
2017-10-27T20:33:12.123Z,101982
2017-10-27T20:35:38.329Z,101983
2017-10-27T20:38:04.488Z,101980
2017-10-27T20:40:30.640Z,101976
2017-10-27T20:42:56.836Z,101966
2017-10-27T20:45:23.023Z,101964
2017-10-27T20:47:49.202Z,101965
2017-10-27T20:50:16.932Z,101957
2017-10-27T20:52:43.089Z,101952
2017-10-27T20:55:10.012Z,101954
2017-10-27T20:57:36.223Z,101949
2017-10-27T21:00:02.423Z,101937
2017-10-27T21:02:28.608Z,101937
2017-10-27T21:04:55.632Z,101935
2017-10-27T21:07:21.816Z,101926
2017-10-27T21:09:48.002Z,101926
2017-10-27T21:12:14.381Z,101936
2017-10-27T21:14:40.572Z,101937
2017-10-27T21:17:07.494Z,101936
2017-10-27T21:19:33.990Z,101925
2017-10-27T21:22:00.184Z,101927
2017-10-27T21:24:27.138Z,101925
2017-10-27T21:26:54.105Z,101925
2017-10-27T21:29:20.265Z,101910
2017-10-27T21:31:46.446Z,101905
2017-10-27T21:34:12.648Z,101905
2017-10-27T21:36:39.599Z,101901
2017-10-27T21:39:06.508Z,101888
2017-10-27T21:41:32.710Z,101892
2017-10-27T21:43:58.908Z,101881
2017-10-27T21:46:25.115Z,101883
2017-10-27T21:48:51.400Z,101883
2017-10-27T21:51:17.601Z,101881
2017-10-27T21:53:43.791Z,101882
2017-10-27T21:56:10.006Z,101871
2017-10-27T21:58:36.184Z,101873
2017-10-27T22:01:02.383Z,101874
2017-10-27T22:03:29.309Z,101878
2017-10-27T22:05:55.516Z,101879
2017-10-27T22:08:21.778Z,101877
2017-10-27T22:10:48.012Z,101867
2017-10-27T22:13:14.194Z,101860
2017-10-27T22:15:40.371Z,101862
2017-10-27T22:18:07.310Z,101860
2017-10-27T22:20:34.261Z,101853
2017-10-27T22:23:01.195Z,101850
2017-10-27T22:25:27.413Z,101850
2017-10-27T22:27:53.576Z,101849
2017-10-27T22:30:19.757Z,101847
2017-10-27T22:32:45.957Z,101850
2017-10-27T22:35:12.140Z,101835
2017-10-27T22:37:39.065Z,101836
2017-10-27T22:40:05.352Z,101830
2017-10-27T22:42:31.518Z,101826
2017-10-27T22:44:57.688Z,101819
2017-10-27T22:47:23.906Z,101803
2017-10-27T22:49:50.809Z,101793
2017-10-27T22:52:16.978Z,101793
2017-10-27T22:54:43.927Z,101784
2017-10-27T22:57:10.824Z,101787
2017-10-27T22:59:37.040Z,101789
2017-10-27T23:02:03.253Z,101779
2017-10-27T23:04:29.425Z,101779
2017-10-27T23:06:55.604Z,101774
2017-10-27T23:09:21.800Z,101774
2017-10-27T23:11:48.713Z,101770
2017-10-27T23:14:14.885Z,101769
2017-10-27T23:16:41.114Z,101757
2017-10-27T23:19:07.295Z,101751
2017-10-27T23:21:33.512Z,101747
2017-10-27T23:23:59.708Z,101745
2017-10-27T23:26:25.897Z,101737
2017-10-27T23:28:52.809Z,101737
2017-10-27T23:31:19.749Z,101723
2017-10-27T23:33:45.913Z,101720
2017-10-27T23:36:12.826Z,101718
2017-10-27T23:38:39.014Z,101721
2017-10-27T23:41:05.192Z,101724
2017-10-27T23:43:31.456Z,101714
2017-10-27T23:45:57.629Z,101711
2017-10-27T23:48:23.808Z,101706
2017-10-27T23:50:49.986Z,101707
2017-10-27T23:53:16.165Z,101700
2017-10-27T23:55:42.330Z,101702
2017-10-27T23:58:08.520Z,101703
